Time;durP1;ratioP1;P1;durP2;ratioP2;P2;SDS_P1;SDS_P2;PMS_P1;PMS_P2;Temp;Humidity;BMP_temperature;BMP_pressure;BME280_temperature;BME280_humidity;BME280_pressure;Samples;Min_cycle;Max_cycle;Signal;HPM_P1;HPM_P2
2023/08/11 00:00:21;;;;;;;5.63;4.55;;;;;;;16.54;100.00;101843.97;5047889;28;20017;-64
2023/08/11 00:02:50;;;;;;;5.70;4.65;;;;;;;16.53;100.00;101836.94;5047388;28;20462;-64
2023/08/11 00:05:18;;;;;;;5.55;5.03;;;;;;;16.52;100.00;101840.41;5047223;28;20047;-64
2023/08/11 00:07:50;;;;;;;4.93;3.90;;;;;;;16.49;100.00;101835.13;5044596;28;20029;-63
2023/08/11 00:10:19;;;;;;;5.07;4.57;;;;;;;16.43;100.00;101840.19;5037079;28;20017;-63
2023/08/11 00:12:45;;;;;;;5.28;4.78;;;;;;;16.40;100.00;101841.03;5045632;28;20025;-63
2023/08/11 00:15:12;;;;;;;5.20;4.70;;;;;;;16.38;100.00;101847.06;5047611;28;20528;-64
2023/08/11 00:17:37;;;;;;;6.05;5.45;;;;;;;16.33;100.00;101834.75;5047839;28;20358;-64
2023/08/11 00:20:05;;;;;;;6.72;5.28;;;;;;;16.33;100.00;101834.75;5053765;28;20032;-63
2023/08/11 00:22:31;;;;;;;5.75;5.15;;;;;;;16.32;100.00;101838.22;5051427;28;20571;-64
2023/08/11 00:24:56;;;;;;;5.93;5.25;;;;;;;16.30;100.00;101834.69;5053537;28;20037;-64
2023/08/11 00:27:21;;;;;;;5.68;5.13;;;;;;;16.28;100.00;101831.13;5053322;28;20036;-64
2023/08/11 00:29:46;;;;;;;6.03;5.15;;;;;;;16.25;100.00;101825.84;5054056;28;20057;-64
2023/08/11 00:32:12;;;;;;;6.65;4.90;;;;;;;16.21;100.00;101834.44;5053331;28;20385;-64
2023/08/11 00:34:37;;;;;;;5.68;5.00;;;;;;;16.20;100.00;101837.91;5054045;28;20044;-64
2023/08/11 00:37:03;;;;;;;8.23;5.72;;;;;;;16.17;100.00;101840.47;5053831;28;20017;-63
2023/08/11 00:39:29;;;;;;;7.22;5.95;;;;;;;16.14;100.00;101835.13;5053065;28;20036;-64
2023/08/11 00:41:54;;;;;;;6.30;5.70;;;;;;;16.10;100.00;101833.31;5053486;28;20032;-63
2023/08/11 00:44:19;;;;;;;6.65;6.00;;;;;;;16.07;100.00;101832.38;5054011;28;20392;-64
2023/08/11 00:46:45;;;;;;;6.45;5.85;;;;;;;16.05;100.00;101828.84;5053262;28;20441;-64
2023/08/11 00:49:10;;;;;;;6.43;5.88;;;;;;;16.04;100.00;101826.19;5053523;28;20086;-64
2023/08/11 00:51:36;;;;;;;7.07;6.35;;;;;;;16.04;100.00;101826.19;5053557;28;20048;-64
2023/08/11 00:54:02;;;;;;;6.70;6.03;;;;;;;16.02;100.00;101813.09;5053496;28;20044;-64
2023/08/11 00:56:28;;;;;;;7.13;6.18;;;;;;;16.00;100.00;101812.16;5053817;28;20394;-64
2023/08/11 00:58:54;;;;;;;6.45;5.90;;;;;;;15.96;100.00;101807.66;5053232;28;20224;-63
2023/08/11 01:01:20;;;;;;;6.53;5.95;;;;;;;15.93;100.00;101803.25;5053140;28;20033;-63
2023/08/11 01:03:47;;;;;;;9.13;6.75;;;;;;;15.91;100.00;101797.13;5053555;28;20025;-64
2023/08/11 01:06:31;;;;;;;8.45;6.70;;;;;;;15.88;100.00;101798.75;5052553;28;20025;-63
2023/08/11 01:09:08;;;;;;;6.88;6.25;;;;;;;15.84;100.00;101803.91;5053571;28;20108;-63
2023/08/11 01:12:04;;;;;;;7.90;6.57;;;;;;;15.80;100.00;101796.84;5052963;28;20451;-64
2023/08/11 01:14:52;;;;;;;7.38;6.63;;;;;;;15.78;100.00;101803.75;5053100;28;20086;-63
2023/08/11 01:17:18;;;;;;;7.63;6.93;;;;;;;15.76;100.00;101794.97;5053379;28;20044;-64
2023/08/11 01:19:45;;;;;;;9.68;8.73;;;;;;;15.74;100.00;101796.66;5052834;28;20587;-63
2023/08/11 01:22:14;;;;;;;7.82;7.03;;;;;;;15.71;100.00;101796.59;5052606;28;20501;-64
2023/08/11 01:24:42;;;;;;;8.27;7.55;;;;;;;15.69;100.00;101787.81;5052558;28;20016;-63
2023/08/11 01:27:08;;;;;;;8.75;7.82;;;;;;;15.67;100.00;101779.94;5052544;28;20115;-63
2023/08/11 01:29:33;;;;;;;9.02;8.23;;;;;;;15.67;100.00;101782.56;5051124;28;20049;-64
2023/08/11 01:31:58;;;;;;;10.02;7.32;;;;;;;15.65;100.00;101779.03;5050674;28;20031;-64
2023/08/11 01:34:24;;;;;;;9.82;8.43;;;;;;;15.63;100.00;101787.69;5049634;28;20520;-64
2023/08/11 01:37:05;;;;;;;9.10;8.20;;;;;;;15.60;100.00;101783.25;5049576;28;20028;-63
2023/08/11 01:39:31;;;;;;;10.70;8.20;;;;;;;15.57;100.00;101783.19;5049694;28;20036;-64
2023/08/11 01:41:57;;;;;;;9.10;8.30;;;;;;;15.55;100.00;101783.13;5046617;28;20022;-63
2023/08/11 01:44:25;;;;;;;9.63;8.73;;;;;;;15.55;100.00;101793.59;5040342;28;20381;-64
2023/08/11 01:46:53;;;;;;;10.13;9.23;;;;;;;15.54;100.00;101786.56;5049519;28;20124;-63
2023/08/11 01:49:19;;;;;;;9.30;8.45;;;;;;;15.54;100.00;101791.81;5049450;28;20021;-63
2023/08/11 01:51:45;;;;;;;9.68;8.77;;;;;;;15.53;100.00;101787.44;5049309;28;20496;-64
2023/08/11 01:54:10;;;;;;;11.10;8.52;;;;;;;15.50;100.00;101789.97;5049684;28;20016;-63
2023/08/11 01:56:37;;;;;;;9.27;8.38;;;;;;;15.48;100.00;101784.72;5049298;28;20019;-63
2023/08/11 01:59:04;;;;;;;9.13;8.40;;;;;;;15.46;100.00;101780.28;5049523;28;20137;-63
2023/08/11 02:01:30;;;;;;;9.07;8.25;;;;;;;15.44;100.00;101787.19;5042174;28;20013;-64
2023/08/11 02:03:56;;;;;;;11.88;9.68;;;;;;;15.42;100.00;101778.41;5049407;28;20021;-63
2023/08/11 02:06:21;;;;;;;10.77;9.75;;;;;;;15.40;100.00;101774.91;5049507;28;20063;-63
2023/08/11 02:08:46;;;;;;;10.55;9.55;;;;;;;15.38;100.00;101766.13;5048923;28;20021;-64
2023/08/11 02:11:13;;;;;;;11.38;10.32;;;;;;;15.34;100.00;101767.78;5048296;28;20630;-64
2023/08/11 02:13:38;;;;;;;11.13;10.13;;;;;;;15.32;100.00;101765.13;5049365;28;20622;-64
2023/08/11 02:16:03;;;;;;;12.00;10.95;;;;;;;15.28;100.00;101768.50;5048954;28;20110;-64
2023/08/11 02:18:30;;;;;;;10.98;9.85;;;;;;;15.26;100.00;101764.97;5049456;28;20044;-63
2023/08/11 02:20:56;;;;;;;12.00;10.90;;;;;;;15.24;100.00;101766.63;5048382;28;20041;-63
2023/08/11 02:23:21;;;;;;;11.35;10.27;;;;;;;15.23;100.00;101762.28;5049031;28;20528;-64
2023/08/11 02:25:46;;;;;;;11.60;10.40;;;;;;;15.21;100.00;101748.28;5049022;28;20020;-64
2023/08/11 02:28:12;;;;;;;12.55;11.00;;;;;;;15.19;100.00;101752.56;5048792;28;20028;-63
2023/08/11 02:30:38;;;;;;;11.27;10.18;;;;;;;15.18;100.00;101758.66;5048824;28;20392;-64
2023/08/11 02:33:03;;;;;;;10.40;9.38;;;;;;;15.16;100.00;101753.38;5041624;28;20018;-63
2023/08/11 02:35:28;;;;;;;11.70;10.57;;;;;;;15.16;100.00;101757.72;5045161;28;20028;-63
2023/08/11 02:37:54;;;;;;;10.95;9.93;;;;;;;15.12;100.00;101760.25;5049481;28;20024;-63
2023/08/11 02:40:22;;;;;;;11.88;10.65;;;;;;;15.11;100.00;101758.47;5048618;28;20024;-64
2023/08/11 02:42:54;;;;;;;11.65;10.55;;;;;;;15.10;100.00;101769.75;5047149;28;20028;-63
2023/08/11 02:45:19;;;;;;;11.07;9.85;;;;;;;15.10;100.00;101774.09;5045269;28;20033;-64
2023/08/11 02:47:45;;;;;;;10.20;9.20;;;;;;;15.10;100.00;101777.59;5048307;28;20025;-63
2023/08/11 02:50:10;;;;;;;9.52;8.70;;;;;;;15.08;100.00;101774.06;5039122;28;20443;-63
2023/08/11 02:52:37;;;;;;;10.20;9.10;;;;;;;15.08;100.00;101774.06;5046647;28;20029;-63
2023/08/11 02:55:04;;;;;;;10.35;9.25;;;;;;;15.06;100.00;101770.50;5041742;28;20410;-64
2023/08/11 02:57:31;;;;;;;12.27;9.98;;;;;;;15.04;100.00;101772.19;5035505;28;20051;-64
2023/08/11 02:59:56;;;;;;;10.27;9.50;;;;;;;14.99;100.00;101777.28;5048252;28;20075;-64
2023/08/11 03:02:21;;;;;;;11.15;10.05;;;;;;;14.98;100.00;101769.41;5045932;28;20389;-64
2023/08/11 03:04:47;;;;;;;11.05;9.98;;;;;;;14.93;100.00;101765.78;5041048;28;20040;-63
2023/08/11 03:07:12;;;;;;;11.60;10.50;;;;;;;14.92;100.00;101771.84;5044409;28;20032;-63
2023/08/11 03:09:39;;;;;;;10.90;10.00;;;;;;;14.88;100.00;101769.16;5048420;28;20563;-64
2023/08/11 03:12:06;;;;;;;11.23;10.23;;;;;;;14.85;100.00;101776.00;5048509;28;20518;-64
2023/08/11 03:14:31;;;;;;;11.50;10.50;;;;;;;14.81;100.00;101761.06;5048494;28;20047;-63
2023/08/11 03:16:56;;;;;;;11.38;10.27;;;;;;;14.81;100.00;101758.44;5047595;28;20506;-63
2023/08/11 03:19:22;;;;;;;12.50;10.70;;;;;;;14.78;100.00;101759.25;5048071;28;20024;-63
2023/08/11 03:21:47;;;;;;;11.88;10.75;;;;;;;14.77;100.00;101750.53;5046793;28;20049;-64
2023/08/11 03:24:12;;;;;;;12.43;11.23;;;;;;;14.76;100.00;101754.00;5035761;28;20094;-63
2023/08/11 03:26:37;;;;;;;12.73;11.63;;;;;;;14.74;100.00;101754.78;5047624;28;20062;-64
2023/08/11 03:29:03;;;;;;;13.55;12.35;;;;;;;14.73;100.00;101760.84;5034788;28;20025;-64
2023/08/11 03:31:28;;;;;;;13.48;12.20;;;;;;;14.68;100.00;101749.41;5047822;28;20021;-63
2023/08/11 03:33:54;;;;;;;13.77;12.43;;;;;;;14.63;100.00;101760.56;5047923;28;20399;-64
2023/08/11 03:36:19;;;;;;;12.80;11.68;;;;;;;14.61;100.00;101763.94;5047447;28;20067;-64
2023/08/11 03:38:45;;;;;;;13.48;12.23;;;;;;;14.57;100.00;101770.78;5044563;28;20546;-64
2023/08/11 03:41:10;;;;;;;13.75;12.45;;;;;;;14.53;100.00;101762.00;5047844;28;20029;-63
2023/08/11 03:43:35;;;;;;;14.32;13.05;;;;;;;14.53;100.00;101763.75;5043672;28;20527;-64
2023/08/11 03:46:01;;;;;;;14.35;13.13;;;;;;;14.51;100.00;101765.41;5038280;28;20024;-64
2023/08/11 03:48:26;;;;;;;12.73;11.52;;;;;;;14.51;100.00;101760.19;5033804;28;20047;-64
2023/08/11 03:50:51;;;;;;;14.15;12.85;;;;;;;14.51;100.00;101760.19;5047743;28;20021;-64
2023/08/11 03:53:17;;;;;;;14.02;12.88;;;;;;;14.49;100.00;101759.25;5046278;28;20021;-63
2023/08/11 03:55:45;;;;;;;16.67;15.07;;;;;;;14.46;100.00;101746.13;5037235;28;20041;-64
2023/08/11 03:58:13;;;;;;;14.50;13.15;;;;;;;14.44;100.00;101747.81;5044922;28;20067;-64
2023/08/11 04:00:38;;;;;;;14.75;13.35;;;;;;;14.41;100.00;101749.47;5047485;28;20024;-64
2023/08/11 04:03:04;;;;;;;14.77;13.45;;;;;;;14.39;100.00;101745.94;5033742;28;20017;-63
2023/08/11 04:05:29;;;;;;;12.95;11.77;;;;;;;14.37;100.00;101751.97;5046241;28;20021;-64
2023/08/11 04:07:55;;;;;;;14.60;13.25;;;;;;;14.34;100.00;101750.13;5045397;28;20380;-63
2023/08/11 04:10:20;;;;;;;14.20;12.95;;;;;;;14.33;100.00;101756.19;5046455;28;20417;-63
2023/08/11 04:12:45;;;;;;;14.55;13.25;;;;;;;14.32;100.00;101753.53;5038719;28;20028;-63
2023/08/11 04:15:11;;;;;;;14.27;12.88;;;;;;;14.30;100.00;101748.28;5038549;28;20060;-63
2023/08/11 04:17:36;;;;;;;14.05;12.80;;;;;;;14.29;100.00;101760.44;5039860;28;20033;-63
2023/08/11 04:20:12;;;;;;;14.13;12.82;;;;;;;14.31;100.00;101750.03;5039209;28;20021;-64
2023/08/11 04:22:38;;;;;;;15.57;14.00;;;;;;;14.31;100.00;101751.75;5035267;28;20480;-63
2023/08/11 04:25:05;;;;;;;16.38;14.77;;;;;;;14.31;100.00;101756.97;5046337;28;20071;-63
2023/08/11 04:27:31;;;;;;;16.20;14.55;;;;;;;14.28;100.00;101755.16;5027499;28;20049;-63
2023/08/11 04:29:57;;;;;;;15.88;14.45;;;;;;;14.27;100.00;101756.88;5040539;28;20647;-63
2023/08/11 04:32:22;;;;;;;15.90;14.40;;;;;;;14.28;100.00;101753.41;5035261;28;20099;-63
2023/08/11 04:34:49;;;;;;;16.00;14.60;;;;;;;14.29;100.00;101754.31;5045683;28;20384;-64
2023/08/11 04:37:14;;;;;;;14.77;13.57;;;;;;;14.29;100.00;101754.31;5047042;28;20071;-63
2023/08/11 04:39:40;;;;;;;14.18;12.80;;;;;;;14.30;100.00;101761.31;5046947;28;20336;-63
2023/08/11 04:42:07;;;;;;;14.75;13.55;;;;;;;14.29;100.00;101760.44;5039782;28;20376;-64
2023/08/11 04:44:33;;;;;;;13.88;12.48;;;;;;;14.30;100.00;101758.72;5047065;28;20079;-64
2023/08/11 04:46:59;;;;;;;15.45;13.68;;;;;;;14.30;100.00;101756.09;5046895;28;20025;-63
2023/08/11 04:49:24;;;;;;;15.60;14.07;;;;;;;14.31;100.00;101755.25;5046910;28;20064;-63
2023/08/11 04:51:49;;;;;;;15.35;14.00;;;;;;;14.32;100.00;101749.19;5046620;28;20071;-64
2023/08/11 04:54:15;;;;;;;15.65;14.15;;;;;;;14.35;100.00;101743.19;5035729;28;20179;-63
2023/08/11 04:56:40;;;;;;;16.30;14.65;;;;;;;14.37;100.00;101742.38;5044457;28;20016;-63
2023/08/11 04:59:05;;;;;;;17.02;15.30;;;;;;;14.39;100.00;101734.66;5046985;28;20033;-63
2023/08/11 05:01:31;;;;;;;16.60;14.05;;;;;;;14.44;100.00;101737.38;5045889;28;20023;-64
2023/08/11 05:03:56;;;;;;;16.60;14.90;;;;;;;14.45;100.00;101724.38;5046894;28;20469;-64
2023/08/11 05:06:21;;;;;;;17.25;15.50;;;;;;;14.48;100.00;101726.22;5043872;28;20088;-64
2023/08/11 05:08:47;;;;;;;16.65;15.05;;;;;;;14.53;100.00;101730.69;5042113;28;20393;-64
2023/08/11 05:11:13;;;;;;;17.45;15.85;;;;;;;14.56;100.00;101727.31;5045033;28;20014;-63
2023/08/11 05:13:38;;;;;;;17.38;15.57;;;;;;;14.58;100.00;101722.13;5044446;28;20025;-63
2023/08/11 05:16:04;;;;;;;18.02;16.23;;;;;;;14.60;100.00;101718.75;5038161;28;20033;-64
2023/08/11 05:18:30;;;;;;;17.95;16.15;;;;;;;14.63;100.00;101724.06;5049018;28;20052;-63
2023/08/11 05:20:55;;;;;;;17.55;15.90;;;;;;;14.65;100.00;101724.97;5037921;28;20123;-64
2023/08/11 05:23:20;;;;;;;18.38;15.20;;;;;;;14.69;100.00;101723.34;5050499;28;20025;-64
2023/08/11 05:25:46;;;;;;;16.63;14.95;;;;;;;14.73;100.00;101725.19;5048071;28;20107;-64
2023/08/11 05:28:11;;;;;;;16.38;14.82;;;;;;;14.77;100.00;101721.84;5038493;28;20542;-63
2023/08/11 05:30:37;;;;;;;16.40;14.70;;;;;;;14.82;100.00;101727.22;5049928;28;20167;-64
2023/08/11 05:33:03;;;;;;;16.70;15.00;;;;;;;14.86;100.00;101716.03;5041813;28;20019;-63
2023/08/11 05:35:29;;;;;;;15.52;14.13;;;;;;;14.94;100.00;101720.56;5048731;28;20035;-63
2023/08/11 05:37:54;;;;;;;16.40;14.73;;;;;;;15.00;100.00;101712.94;5049897;28;20025;-64
2023/08/11 05:40:19;;;;;;;16.77;14.60;;;;;;;15.07;100.00;101714.88;5046522;28;20033;-64
2023/08/11 05:42:45;;;;;;;15.32;13.88;;;;;;;15.17;100.00;101716.00;5040782;28;20378;-64
2023/08/11 05:45:10;;;;;;;15.57;13.10;;;;;;;15.27;100.00;101718.84;5049925;28;20016;-64
2023/08/11 05:47:35;;;;;;;17.95;14.18;;;;;;;15.35;100.00;101715.59;5039046;28;20029;-64
2023/08/11 05:50:01;;;;;;;13.95;12.55;;;;;;;15.45;100.00;101714.09;5042641;28;20104;-64
2023/08/11 05:52:26;;;;;;;15.40;13.75;;;;;;;15.53;100.00;101719.53;5046902;28;20429;-63
2023/08/11 05:54:51;;;;;;;14.77;13.25;;;;;;;15.65;100.00;101724.16;5040733;28;20122;-64
2023/08/11 05:57:18;;;;;;;15.38;13.52;;;;;;;15.74;100.00;101720.88;5046863;28;20040;-64
2023/08/11 05:59:43;;;;;;;14.02;12.65;;;;;;;15.85;100.00;101718.53;5046763;28;20477;-64
2023/08/11 06:02:08;;;;;;;13.30;11.60;;;;;;;15.97;100.00;101720.59;5046955;28;20040;-64
2023/08/11 06:04:35;;;;;;;13.25;12.00;;;;;;;16.09;100.00;101720.00;5038535;28;20021;-64
2023/08/11 06:07:01;;;;;;;14.27;11.45;;;;;;;16.21;100.00;101724.63;5042006;28;20033;-64
2023/08/11 06:09:26;;;;;;;13.15;11.85;;;;;;;16.31;100.00;101720.50;5047134;28;20071;-64
2023/08/11 06:11:51;;;;;;;11.30;10.10;;;;;;;16.45;100.00;101720.81;5045771;28;20080;-63
2023/08/11 06:14:17;;;;;;;12.50;10.00;;;;;;;16.54;100.00;101717.50;5046419;28;20078;-63
2023/08/11 06:16:42;;;;;;;11.43;10.38;;;;;;;16.70;100.00;101726.53;5046319;28;20036;-64
2023/08/11 06:19:07;;;;;;;12.77;10.63;;;;;;;16.84;100.00;101718.09;5040973;28;20528;-65
2023/08/11 06:21:33;;;;;;;10.80;9.77;;;;;;;16.98;100.00;101721.84;5037227;28;20378;-64
2023/08/11 06:23:58;;;;;;;12.32;9.13;;;;;;;17.13;100.00;101723.03;5039545;28;20495;-64
2023/08/11 06:26:23;;;;;;;13.18;8.75;;;;;;;17.23;100.00;101730.22;5042821;28;20029;-64
2023/08/11 06:28:49;;;;;;;10.57;8.85;;;;;;;17.32;100.00;101726.00;5039487;28;20035;-64
2023/08/11 06:31:14;;;;;;;10.95;9.18;;;;;;;17.45;100.00;101733.22;5045810;28;20032;-64
2023/08/11 06:33:39;;;;;;;12.32;8.25;;;;;;;17.60;100.00;101730.00;5045633;28;20544;-64
2023/08/11 06:36:05;;;;;;;9.65;8.68;;;;;;;17.77;100.00;101730.25;5045151;28;20033;-64
2023/08/11 06:38:32;;;;;;;9.15;7.80;;;;;;;17.93;100.00;101733.13;5031601;28;20155;-64
2023/08/11 06:40:57;;;;;;;10.00;7.43;;;;;;;18.07;100.00;101735.97;5042636;28;20032;-64
2023/08/11 06:43:23;;;;;;;11.85;7.28;;;;;;;18.23;100.00;101741.47;5045437;28;20033;-64
2023/08/11 06:45:48;;;;;;;8.95;6.93;;;;;;;18.39;100.00;101737.31;5044792;28;20048;-64
2023/08/11 06:48:13;;;;;;;6.35;5.72;;;;;;;18.55;100.00;101734.88;5040831;28;20036;-64
2023/08/11 06:50:38;;;;;;;7.55;5.82;;;;;;;18.70;100.00;101736.81;5046509;28;20357;-64
2023/08/11 06:53:04;;;;;;;8.95;6.45;;;;;;;18.80;100.00;101741.31;5038012;28;20033;-64
2023/08/11 06:55:29;;;;;;;6.38;5.78;;;;;;;18.98;100.00;101746.78;5045698;28;20051;-64
2023/08/11 06:57:54;;;;;;;8.52;5.63;;;;;;;19.10;100.00;101753.91;5042891;28;20031;-65
2023/08/11 07:00:20;;;;;;;6.25;4.90;;;;;;;19.27;100.00;101754.09;5036407;28;20021;-65
2023/08/11 07:02:46;;;;;;;6.03;5.20;;;;;;;19.46;100.00;101754.28;5045016;28;20063;-64
2023/08/11 07:05:11;;;;;;;9.05;5.25;;;;;;;19.66;100.00;101757.97;5045201;28;20380;-64
2023/08/11 07:07:37;;;;;;;6.88;4.97;;;;;;;19.84;100.00;101750.25;5045648;28;20065;-65
2023/08/11 07:10:03;;;;;;;6.75;4.50;;;;;;;19.99;100.00;101754.72;5048865;28;20025;-64
2023/08/11 07:12:28;;;;;;;4.82;3.88;;;;;;;20.14;100.00;101760.13;5046265;28;20292;-64
2023/08/11 07:14:54;;;;;;;5.35;4.20;;;;;;;20.36;100.00;101759.38;5046664;28;20508;-64
2023/08/11 07:17:19;;;;;;;5.47;3.42;;;;;;;20.52;100.00;101760.34;5045284;28;20044;-65
2023/08/11 07:19:44;;;;;;;6.88;4.30;;;;;;;20.66;100.00;101759.50;5047053;28;20167;-64
2023/08/11 07:22:10;;;;;;;6.97;4.20;;;;;;;20.81;100.00;101764.84;5047950;28;20045;-65
2023/08/11 07:24:35;;;;;;;5.68;3.55;;;;;;;20.96;100.00;101756.13;5047735;28;20095;-65
2023/08/11 07:27:00;;;;;;;5.32;3.60;;;;;;;21.08;100.00;101760.56;5044171;28;20026;-64
2023/08/11 07:29:26;;;;;;;6.40;3.80;;;;;;;21.29;100.00;101758.84;5034808;28;20033;-65
2023/08/11 07:31:51;;;;;;;6.10;4.20;;;;;;;21.48;100.00;101756.22;5048011;28;20048;-65
2023/08/11 07:34:17;;;;;;;5.18;3.60;;;;;;;21.56;99.23;101772.94;5048366;28;20519;-64
2023/08/11 07:36:43;;;;;;;6.28;3.72;;;;;;;21.66;99.70;101762.41;5044057;28;20696;-64
2023/08/11 07:39:09;;;;;;;4.18;2.90;;;;;;;21.88;100.00;101762.41;5035840;28;20091;-65
2023/08/11 07:41:35;;;;;;;5.13;4.03;;;;;;;22.10;98.00;101759.75;5043221;28;20033;-64
2023/08/11 07:44:02;;;;;;;5.40;3.17;;;;;;;22.35;96.15;101762.31;5045379;28;20061;-65
2023/08/11 07:46:27;;;;;;;3.78;2.80;;;;;;;22.61;97.91;101764.88;5041104;28;20064;-65
2023/08/11 07:48:52;;;;;;;4.07;3.17;;;;;;;22.85;97.48;101752.47;5037982;28;20838;-65
2023/08/11 07:51:18;;;;;;;6.03;3.08;;;;;;;23.13;97.67;101757.59;5044170;28;20024;-65
2023/08/11 07:53:44;;;;;;;4.30;3.05;;;;;;;23.26;87.47;101763.69;5036357;28;20354;-65
2023/08/11 07:56:11;;;;;;;4.82;3.05;;;;;;;23.45;90.37;101768.88;5043425;28;20361;-65
2023/08/11 07:58:36;;;;;;;8.40;3.60;;;;;;;23.67;86.76;101771.38;5040228;28;20118;-65
2023/08/11 08:01:02;;;;;;;5.60;3.28;;;;;;;23.67;79.78;101773.13;5045809;28;20477;-65
2023/08/11 08:03:27;;;;;;;5.28;3.47;;;;;;;23.96;86.01;101774.63;5037250;28;20025;-65
2023/08/11 08:05:52;;;;;;;3.95;3.15;;;;;;;24.18;81.38;101777.97;5047545;28;20024;-64
2023/08/11 08:08:18;;;;;;;6.13;3.38;;;;;;;24.50;79.58;101780.28;5047748;28;20155;-65
2023/08/11 08:10:43;;;;;;;4.35;3.05;;;;;;;24.63;78.08;101779.22;5046884;28;20044;-65
2023/08/11 08:13:08;;;;;;;4.60;3.00;;;;;;;24.79;77.13;101777.25;5039017;28;20523;-65
2023/08/11 08:15:35;;;;;;;4.95;2.85;;;;;;;24.90;77.53;101777.09;5040707;28;20476;-65
2023/08/11 08:18:00;;;;;;;5.47;3.05;;;;;;;24.98;71.57;101782.34;5045680;28;20052;-65
2023/08/11 08:20:26;;;;;;;4.88;3.38;;;;;;;25.02;71.84;101776.06;5036879;28;20485;-65
2023/08/11 08:22:51;;;;;;;5.35;2.70;;;;;;;25.41;75.68;101772.00;5042312;28;20048;-65
2023/08/11 08:25:16;;;;;;;5.72;2.88;;;;;;;25.64;77.41;101771.59;5044189;28;20107;-65
2023/08/11 08:27:42;;;;;;;3.92;2.63;;;;;;;25.90;76.45;101766.78;5046196;28;20021;-65
2023/08/11 08:30:10;;;;;;;6.07;2.90;;;;;;;25.76;70.11;101775.00;5042808;28;20013;-65
2023/08/11 08:32:36;;;;;;;5.55;2.83;;;;;;;25.93;72.00;101776.44;5042123;28;20424;-65
2023/08/11 08:35:03;;;;;;;3.95;2.70;;;;;;;25.96;69.72;101776.41;5039067;28;20018;-65
2023/08/11 08:37:28;;;;;;;5.25;2.60;;;;;;;26.14;73.48;101781.38;5043337;28;20021;-65
2023/08/11 08:39:55;;;;;;;4.55;3.00;;;;;;;26.16;66.40;101780.47;5042426;28;20040;-65
2023/08/11 08:42:22;;;;;;;4.03;2.83;;;;;;;26.23;69.48;101782.09;5044303;28;20025;-66
2023/08/11 08:44:48;;;;;;;4.07;2.97;;;;;;;26.37;69.56;101782.72;5046858;28;20484;-65
2023/08/11 08:47:16;;;;;;;4.22;2.67;;;;;;;26.33;66.94;101777.50;5041585;28;20017;-65
2023/08/11 08:49:43;;;;;;;3.03;2.72;;;;;;;26.33;68.03;101777.50;5051315;28;20028;-65
2023/08/11 08:52:08;;;;;;;4.45;2.45;;;;;;;26.32;66.04;101779.25;5050713;28;20029;-65
2023/08/11 08:54:34;;;;;;;3.40;2.50;;;;;;;26.45;71.14;101774.63;5036416;28;20083;-65
2023/08/11 08:57:01;;;;;;;7.47;2.92;;;;;;;26.31;64.32;101777.53;5046075;28;20388;-65
2023/08/11 08:59:26;;;;;;;4.32;2.72;;;;;;;26.42;65.68;101776.44;5041384;28;20048;-65
2023/08/11 09:01:53;;;;;;;6.78;2.97;;;;;;;26.64;67.31;101774.25;5042964;28;20515;-65
2023/08/11 09:04:20;;;;;;;4.65;2.80;;;;;;;26.82;64.96;101778.25;5046725;28;20025;-65
2023/08/11 09:06:46;;;;;;;3.55;2.75;;;;;;;26.90;63.89;101774.56;5047897;28;20025;-65
2023/08/11 09:09:12;;;;;;;7.20;2.45;;;;;;;26.95;65.02;101773.56;5043672;28;20452;-64
2023/08/11 09:11:38;;;;;;;5.38;2.78;;;;;;;26.72;61.99;101768.75;5045151;28;20193;-64
2023/08/11 09:14:04;;;;;;;2.80;2.47;;;;;;;26.89;67.20;101762.19;5035220;28;20017;-64
2023/08/11 09:16:32;;;;;;;4.57;2.70;;;;;;;26.93;64.89;101771.84;5044841;28;20469;-65
2023/08/11 09:18:58;;;;;;;3.97;2.53;;;;;;;27.20;68.26;101777.47;5048091;28;20024;-64
2023/08/11 09:21:24;;;;;;;4.40;2.58;;;;;;;27.11;65.40;101773.22;5050095;28;20060;-64
2023/08/11 09:23:52;;;;;;;3.15;2.03;;;;;;;27.32;67.12;101765.66;5050766;28;20064;-65
2023/08/11 09:26:20;;;;;;;3.92;2.65;;;;;;;27.40;67.84;101765.47;5051066;28;20024;-64
2023/08/11 09:28:45;;;;;;;3.42;2.58;;;;;;;27.52;67.29;101767.84;5050059;28;20078;-64
2023/08/11 09:31:12;;;;;;;3.28;2.30;;;;;;;27.63;67.38;101769.34;5047865;28;20071;-65
2023/08/11 09:33:37;;;;;;;3.60;2.92;;;;;;;27.75;69.55;101769.06;5033751;28;20032;-64
2023/08/11 09:36:02;;;;;;;3.60;2.20;;;;;;;27.81;63.39;101763.56;5044506;28;20025;-65
2023/08/11 09:38:28;;;;;;;3.40;2.55;;;;;;;27.94;66.70;101763.22;5048787;28;20488;-65
2023/08/11 09:40:53;;;;;;;2.83;2.28;;;;;;;28.07;67.51;101768.22;5050694;28;20029;-65
2023/08/11 09:43:18;;;;;;;3.75;2.60;;;;;;;28.20;67.98;101764.31;5043566;28;20464;-64
2023/08/11 09:45:44;;;;;;;3.22;2.47;;;;;;;28.29;66.56;101768.50;5039952;28;20021;-66
2023/08/11 09:48:09;;;;;;;4.03;2.10;;;;;;;28.29;68.12;101764.06;5044599;28;20032;-64
2023/08/11 09:50:37;;;;;;;5.53;2.33;;;;;;;28.12;65.05;101767.19;5043706;28;20284;-65
2023/08/11 09:53:04;;;;;;;3.45;1.98;;;;;;;27.81;64.98;101763.56;5044565;28;20054;-65
2023/08/11 09:55:32;;;;;;;2.40;2.20;;;;;;;27.55;64.33;101762.44;5039029;28;20016;-65
2023/08/11 09:57:59;;;;;;;3.97;2.35;;;;;;;27.36;66.00;101766.47;5035533;28;20301;-64
2023/08/11 10:00:25;;;;;;;2.92;2.10;;;;;;;27.50;71.86;101769.66;5040453;28;20044;-66
2023/08/11 10:02:59;;;;;;;4.10;2.00;;;;;;;27.74;70.99;101761.97;5044431;28;20218;-65
2023/08/11 10:05:28;;;;;;;3.88;2.28;;;;;;;27.97;68.60;101762.28;5034627;28;20104;-65
2023/08/11 10:07:54;;;;;;;3.80;1.95;;;;;;;28.16;69.12;101765.31;5044565;28;20377;-65
2023/08/11 10:10:22;;;;;;;3.45;2.28;;;;;;;28.12;65.96;101764.50;5045238;28;20024;-64
2023/08/11 10:12:55;;;;;;;3.28;2.05;;;;;;;27.84;62.62;101778.59;5039138;28;20068;-65
2023/08/11 10:15:22;;;;;;;3.33;2.35;;;;;;;27.82;63.11;101777.75;5045398;28;20024;-65
2023/08/11 10:17:48;;;;;;;3.05;2.13;;;;;;;27.76;64.18;101765.47;5042593;28;20025;-65
2023/08/11 10:20:14;;;;;;;3.67;2.28;;;;;;;27.91;62.94;101768.63;5044666;28;20489;-65
2023/08/11 10:22:39;;;;;;;5.35;2.00;;;;;;;28.07;64.55;101769.09;5042056;28;20084;-65
2023/08/11 10:25:06;;;;;;;1.92;1.60;;;;;;;28.11;61.86;101764.56;5034086;28;20532;-65
2023/08/11 10:27:32;;;;;;;2.78;1.85;;;;;;;28.33;64.80;101761.28;5049462;28;20559;-65
2023/08/11 10:29:59;;;;;;;2.75;2.30;;;;;;;28.25;60.62;101766.81;5047783;28;20025;-65
2023/08/11 10:32:31;;;;;;;5.55;1.73;;;;;;;28.43;61.95;101754.81;5039354;28;20021;-66
2023/08/11 10:34:57;;;;;;;2.10;1.60;;;;;;;28.64;65.87;101753.28;5049917;28;20463;-65
2023/08/11 10:37:32;;;;;;;2.25;2.05;;;;;;;28.76;65.80;101752.06;5048211;28;20033;-66
2023/08/11 10:40:05;;;;;;;2.05;1.88;;;;;;;28.90;65.34;101758.75;5035721;28;20244;-65
2023/08/11 10:42:31;;;;;;;1.65;1.55;;;;;;;28.79;57.98;101764.41;5045498;28;20021;-66
2023/08/11 10:45:13;;;;;;;4.85;1.77;;;;;;;28.72;60.44;101757.50;5047596;28;20501;-65
2023/08/11 10:47:59;;;;;;;1.77;1.48;;;;;;;28.85;61.96;101750.91;5042051;28;20025;-65
2023/08/11 10:50:27;;;;;;;2.90;1.83;;;;;;;28.97;63.47;101756.75;5048632;28;20449;-65
2023/08/11 10:53:19;;;;;;;3.53;1.98;;;;;;;29.11;64.87;101745.66;5048356;28;20108;-66
2023/08/11 10:55:59;;;;;;;2.70;1.52;;;;;;;28.83;58.23;101751.84;5036924;28;20041;-65
2023/08/11 10:58:24;;;;;;;1.85;1.67;;;;;;;28.80;58.07;101754.63;5049090;28;20295;-66
2023/08/11 11:00:50;;;;;;;4.40;2.25;;;;;;;28.80;57.51;101759.94;5036266;28;20095;-65
2023/08/11 11:03:15;;;;;;;2.33;1.70;;;;;;;28.94;60.99;101759.50;5047753;28;20021;-65
2023/08/11 11:05:42;;;;;;;2.67;1.67;;;;;;;29.09;62.16;101753.72;5036673;28;20478;-65
2023/08/11 11:08:07;;;;;;;1.98;1.60;;;;;;;29.12;58.91;101750.97;5030287;28;20079;-66
2023/08/11 11:10:32;;;;;;;2.50;1.40;;;;;;;29.20;58.11;101749.81;5043379;28;20025;-66